createdAt,value
2023-05-08T00:00:08.790Z,97858.47
2023-05-08T00:02:38.829Z,97854.47
2023-05-08T00:05:09.047Z,97852.16
2023-05-08T00:07:38.015Z,97848.03
2023-05-08T00:10:08.217Z,97854.78
2023-05-08T00:12:36.759Z,97857.81
2023-05-08T00:15:06.902Z,97857.31
2023-05-08T00:17:35.219Z,97855.84
2023-05-08T00:20:05.644Z,97864.25
2023-05-08T00:22:33.917Z,97861.75
2023-05-08T00:25:07.673Z,97861.66
2023-05-08T00:27:36.014Z,97859.81
2023-05-08T00:30:04.648Z,97869.88
2023-05-08T00:32:33.177Z,97873.94
2023-05-08T00:35:01.474Z,97874.28
2023-05-08T00:37:31.148Z,97882.69
2023-05-08T00:39:59.500Z,97880.00
2023-05-08T00:42:30.336Z,97889.06
2023-05-08T00:44:58.623Z,97891.09
2023-05-08T00:47:29.095Z,97892.94
2023-05-08T00:49:57.764Z,97892.13
2023-05-08T00:52:27.318Z,97898.28
2023-05-08T00:54:57.367Z,97898.28
2023-05-08T00:57:26.454Z,97886.75
2023-05-08T00:59:55.888Z,97897.66
2023-05-08T01:02:24.521Z,97899.47
2023-05-08T01:04:55.082Z,97900.50
2023-05-08T01:07:23.953Z,97892.66
2023-05-08T01:09:52.267Z,97901.69
2023-05-08T01:12:32.002Z,97901.22
2023-05-08T01:15:10.628Z,97915.78
2023-05-08T01:17:57.483Z,97912.47
2023-05-08T01:20:40.880Z,97911.81
2023-05-08T01:23:59.403Z,97909.69
2023-05-08T01:27:25.344Z,97919.94
2023-05-08T01:30:42.868Z,97927.47
2023-05-08T01:33:22.954Z,97922.47
2023-05-08T01:35:56.352Z,97930.50
2023-05-08T01:38:38.293Z,97938.72
2023-05-08T01:41:12.108Z,97940.09
2023-05-08T01:43:49.915Z,97947.47
2023-05-08T01:46:22.205Z,97944.97
2023-05-08T01:49:00.631Z,97944.28
2023-05-08T01:51:34.843Z,97940.81
2023-05-08T01:54:10.100Z,97942.81
2023-05-08T01:56:41.595Z,97947.50
2023-05-08T01:59:11.924Z,97936.34
2023-05-08T02:01:43.625Z,97950.72
2023-05-08T02:04:15.862Z,97946.69
2023-05-08T02:06:45.046Z,97948.69
2023-05-08T02:09:14.247Z,97955.91
2023-05-08T02:11:45.497Z,97953.41
2023-05-08T02:14:15.937Z,97950.25
2023-05-08T02:16:46.286Z,97953.94
2023-05-08T02:19:17.658Z,97959.66
2023-05-08T02:21:47.434Z,97958.97
2023-05-08T02:24:17.491Z,97952.31
2023-05-08T02:26:47.500Z,97960.16
2023-05-08T02:29:16.891Z,97951.47
2023-05-08T02:31:47.912Z,97960.53
2023-05-08T02:34:18.825Z,97954.69
2023-05-08T02:36:47.473Z,97961.72
2023-05-08T02:39:18.752Z,97958.53
2023-05-08T02:41:47.903Z,97960.38
2023-05-08T02:44:19.781Z,97958.06
2023-05-08T02:47:00.205Z,97968.47
2023-05-08T02:49:41.244Z,97968.97
2023-05-08T02:52:15.407Z,97971.50
2023-05-08T02:54:48.636Z,97977.38
2023-05-08T02:57:32.080Z,97983.72
2023-05-08T03:00:07.499Z,97985.22
2023-05-08T03:02:41.721Z,97986.41
2023-05-08T03:05:19.236Z,97986.94
2023-05-08T03:07:52.498Z,97986.63
2023-05-08T03:10:27.547Z,97998.31
2023-05-08T03:12:58.342Z,97991.47
2023-05-08T03:15:36.827Z,97996.31
2023-05-08T03:18:16.688Z,98006.53
2023-05-08T03:20:50.122Z,97993.50
2023-05-08T03:23:22.329Z,97996.34
2023-05-08T03:25:50.702Z,98005.53
2023-05-08T03:28:19.807Z,97991.69
2023-05-08T03:30:49.418Z,98000.66
2023-05-08T03:33:19.186Z,98005.19
2023-05-08T03:35:50.972Z,98001.00
2023-05-08T03:38:19.819Z,98000.19
2023-05-08T03:40:49.393Z,98001.16
2023-05-08T03:43:19.111Z,98004.16
2023-05-08T03:45:47.938Z,98012.19
2023-05-08T03:48:16.496Z,98011.38
2023-05-08T03:50:48.699Z,98011.53
2023-05-08T03:53:18.509Z,98012.69
2023-05-08T03:55:47.099Z,98011.03
2023-05-08T03:58:23.009Z,98015.06
2023-05-08T04:01:05.437Z,98012.03
2023-05-08T04:03:50.061Z,98013.38
2023-05-08T04:06:35.675Z,98020.88
2023-05-08T04:09:19.470Z,98027.41
2023-05-08T04:12:02.515Z,98029.41
2023-05-08T04:14:41.180Z,98036.94
2023-05-08T04:17:12.004Z,98037.91
2023-05-08T04:19:46.330Z,98041.75
2023-05-08T04:22:16.377Z,98043.75
2023-05-08T04:24:49.365Z,98047.75
2023-05-08T04:27:18.276Z,98050.59
2023-05-08T04:29:46.776Z,98052.09
2023-05-08T04:32:15.715Z,98054.59
2023-05-08T04:34:44.269Z,98049.91
2023-05-08T04:37:28.280Z,98054.22
2023-05-08T04:40:01.555Z,98059.06
2023-05-08T04:42:30.209Z,98060.91
2023-05-08T04:45:01.615Z,98054.88
2023-05-08T04:47:30.001Z,98058.88
2023-05-08T04:49:59.547Z,98066.72
2023-05-08T04:52:32.608Z,98061.56
2023-05-08T04:55:05.839Z,98071.38
2023-05-08T04:57:34.788Z,98075.06
2023-05-08T05:00:03.301Z,98065.38
2023-05-08T05:02:31.656Z,98074.91
2023-05-08T05:05:01.369Z,98082.22
2023-05-08T05:07:32.764Z,98076.38
2023-05-08T05:10:03.060Z,98081.22
2023-05-08T05:12:31.466Z,98075.31
2023-05-08T05:14:59.840Z,98075.63
2023-05-08T05:17:28.655Z,98080.28
2023-05-08T05:19:57.419Z,98078.25
2023-05-08T05:22:25.900Z,98085.06
2023-05-08T05:24:54.238Z,98087.69
2023-05-08T05:27:23.934Z,98090.47
2023-05-08T05:29:55.271Z,98082.78
2023-05-08T05:32:23.641Z,98084.47
2023-05-08T05:34:53.898Z,98097.13
2023-05-08T05:37:22.287Z,98101.13
2023-05-08T05:39:50.659Z,98097.16
2023-05-08T05:42:18.993Z,98100.50
2023-05-08T05:44:48.704Z,98097.19
2023-05-08T05:47:17.109Z,98105.41
2023-05-08T05:49:46.938Z,98110.25
2023-05-08T05:52:15.469Z,98114.63
2023-05-08T05:54:43.931Z,98106.09
2023-05-08T05:57:13.355Z,98107.28
2023-05-08T05:59:41.827Z,98111.81
2023-05-08T06:02:14.577Z,98112.31
2023-05-08T06:04:43.011Z,98118.31
2023-05-08T06:07:11.368Z,98113.69
2023-05-08T06:09:39.675Z,98119.50
2023-05-08T06:12:08.340Z,98118.09
2023-05-08T06:14:36.662Z,98121.94
2023-05-08T06:17:05.154Z,98118.25
2023-05-08T06:19:35.057Z,98124.81
2023-05-08T06:22:03.520Z,98122.66
2023-05-08T06:24:31.904Z,98121.00
2023-05-08T06:27:00.258Z,98115.16
2023-05-08T06:29:28.622Z,98123.69
2023-05-08T06:31:57.665Z,98125.88
2023-05-08T06:34:26.112Z,98127.72
2023-05-08T06:36:56.398Z,98126.88
2023-05-08T06:39:24.926Z,98132.22
2023-05-08T06:41:53.267Z,98130.88
2023-05-08T06:44:21.597Z,98122.22
2023-05-08T06:46:50.037Z,98126.38
2023-05-08T06:49:18.373Z,98125.53
2023-05-08T06:51:46.722Z,98130.34
2023-05-08T06:54:16.618Z,98129.53
2023-05-08T06:56:45.036Z,98128.19
2023-05-08T06:59:13.443Z,98127.53
2023-05-08T07:01:41.937Z,98123.19
2023-05-08T07:04:10.338Z,98123.91
2023-05-08T07:06:38.757Z,98121.06
2023-05-08T07:09:07.052Z,98134.28
2023-05-08T07:11:36.811Z,98125.59
2023-05-08T07:14:05.150Z,98126.25
2023-05-08T07:16:33.674Z,98127.13
2023-05-08T07:19:02.116Z,98125.59
2023-05-08T07:21:30.759Z,98121.78
2023-05-08T07:23:59.067Z,98130.13
2023-05-08T07:26:27.385Z,98125.44
2023-05-08T07:28:57.188Z,98136.31
2023-05-08T07:31:26.453Z,98130.63
2023-05-08T07:33:54.967Z,98132.97
2023-05-08T07:36:23.899Z,98131.81
2023-05-08T07:38:52.214Z,98136.31
2023-05-08T07:41:20.620Z,98138.13
2023-05-08T07:43:51.779Z,98136.47
2023-05-08T07:46:21.821Z,98142.00
2023-05-08T07:48:50.191Z,98133.31
2023-05-08T07:51:18.640Z,98131.63
2023-05-08T07:53:48.781Z,98128.59
2023-05-08T07:56:17.212Z,98137.59
2023-05-08T07:58:46.083Z,98129.22
2023-05-08T08:01:14.451Z,98134.38
2023-05-08T08:03:44.241Z,98127.00
2023-05-08T08:06:12.874Z,98136.03
2023-05-08T08:08:41.403Z,98138.78
2023-05-08T08:11:09.916Z,98134.56
2023-05-08T08:13:38.169Z,98138.00
2023-05-08T08:16:07.665Z,98131.13
2023-05-08T08:18:37.082Z,98132.03
2023-05-08T08:21:09.536Z,98140.66
2023-05-08T08:23:38.666Z,98133.75
2023-05-08T08:26:07.070Z,98128.13
2023-05-08T08:28:35.354Z,98132.03
2023-05-08T08:31:03.712Z,98127.44
2023-05-08T08:33:32.147Z,98126.34
2023-05-08T08:36:00.479Z,98121.56
2023-05-08T08:38:30.320Z,98126.84
2023-05-08T08:40:58.688Z,98119.59
2023-05-08T08:43:27.138Z,98118.13
2023-05-08T08:45:55.801Z,98121.19
2023-05-08T08:48:29.621Z,98121.81
2023-05-08T08:51:03.990Z,98109.03
2023-05-08T08:53:38.595Z,98116.03
2023-05-08T08:56:12.682Z,98109.09
2023-05-08T08:58:51.148Z,98102.25
2023-05-08T09:01:20.904Z,98098.88
2023-05-08T09:03:50.077Z,98099.84
2023-05-08T09:06:18.686Z,98093.97
2023-05-08T09:08:49.221Z,98104.66
2023-05-08T09:11:17.517Z,98101.81
2023-05-08T09:13:45.862Z,98107.56
2023-05-08T09:16:14.220Z,98120.28
2023-05-08T09:18:42.544Z,98114.97
2023-05-08T09:21:11.233Z,98108.03
2023-05-08T09:23:54.636Z,98107.47
2023-05-08T09:26:29.705Z,98107.19
2023-05-08T09:29:11.813Z,98109.34
2023-05-08T09:31:42.213Z,98102.75
2023-05-08T09:34:11.837Z,98104.47
2023-05-08T09:36:42.109Z,98100.38
2023-05-08T09:39:13.972Z,98097.53
2023-05-08T09:41:59.712Z,98104.44
2023-05-08T09:44:28.175Z,98102.66
2023-05-08T09:47:12.287Z,98105.59
2023-05-08T09:49:40.915Z,98108.53
2023-05-08T09:52:09.546Z,98105.00
2023-05-08T09:54:39.495Z,98096.94
2023-05-08T09:57:14.183Z,98095.28
2023-05-08T09:59:42.503Z,98096.75
2023-05-08T10:02:16.283Z,98092.38
2023-05-08T10:04:44.852Z,98096.97
2023-05-08T10:07:13.235Z,98091.59
2023-05-08T10:10:00.441Z,98100.53
2023-05-08T10:12:29.413Z,98101.97
2023-05-08T10:14:58.172Z,98100.31
2023-05-08T10:17:39.976Z,98087.84
2023-05-08T10:20:10.135Z,98081.81
2023-05-08T10:22:39.941Z,98091.56
2023-05-08T10:25:18.533Z,98091.34
2023-05-08T10:27:54.973Z,98083.88
2023-05-08T10:30:27.957Z,98091.56
2023-05-08T10:32:59.744Z,98094.88
2023-05-08T10:35:31.863Z,98090.34
2023-05-08T10:38:00.688Z,98090.28
2023-05-08T10:40:30.355Z,98081.13
2023-05-08T10:42:59.962Z,98089.88
2023-05-08T10:45:29.853Z,98080.31
2023-05-08T10:48:10.272Z,98069.09
2023-05-08T10:50:53.773Z,98076.56
2023-05-08T10:53:30.739Z,98069.69
2023-05-08T10:56:01.200Z,98076.31
2023-05-08T10:58:34.122Z,98082.09
2023-05-08T11:01:16.913Z,98062.72
2023-05-08T11:03:51.707Z,98067.66
2023-05-08T11:06:44.630Z,98053.66
2023-05-08T11:09:23.107Z,98061.13
2023-05-08T11:12:08.899Z,98054.63
2023-05-08T11:14:41.806Z,98053.75
2023-05-08T11:17:11.499Z,98046.19
2023-05-08T11:19:40.110Z,98051.78
2023-05-08T11:22:27.136Z,98049.69
2023-05-08T11:25:02.370Z,98048.53
2023-05-08T11:28:14.632Z,98044.28
2023-05-08T11:30:46.548Z,98047.56
2023-05-08T11:33:18.853Z,98039.78
2023-05-08T11:35:56.432Z,98024.75
2023-05-08T11:38:30.982Z,98029.34
2023-05-08T11:41:02.669Z,98039.22
2023-05-08T11:44:10.448Z,98034.84
2023-05-08T11:46:50.328Z,98029.16
2023-05-08T11:49:23.842Z,98031.19
2023-05-08T11:51:57.979Z,98024.47
2023-05-08T11:54:27.588Z,98020.88
2023-05-08T11:56:56.240Z,98026.06
2023-05-08T11:59:27.531Z,98019.81
2023-05-08T12:02:07.784Z,98019.34
2023-05-08T12:04:46.038Z,98023.81
2023-05-08T12:07:15.870Z,98022.91
2023-05-08T12:09:44.201Z,98030.19
2023-05-08T12:12:12.535Z,98024.94
2023-05-08T12:14:43.447Z,98027.03
2023-05-08T12:17:18.133Z,98033.13
2023-05-08T12:19:46.575Z,98038.63
2023-05-08T12:22:14.851Z,98037.44
2023-05-08T12:24:43.210Z,98039.53
2023-05-08T12:27:14.494Z,98041.63
2023-05-08T12:29:46.657Z,98034.16
2023-05-08T12:32:16.487Z,98042.06
2023-05-08T12:34:44.909Z,98044.34
2023-05-08T12:37:13.246Z,98036.22
2023-05-08T12:39:46.089Z,98027.28
2023-05-08T12:42:14.392Z,98027.88
2023-05-08T12:44:51.923Z,98031.41
2023-05-08T12:47:21.673Z,98026.38
2023-05-08T12:49:50.630Z,98023.66
2023-05-08T12:52:19.383Z,98026.97
2023-05-08T12:54:49.812Z,98025.53
2023-05-08T12:57:22.933Z,98022.44
2023-05-08T12:59:51.357Z,98026.75
2023-05-08T13:02:24.021Z,98027.94
2023-05-08T13:04:56.787Z,98018.31
2023-05-08T13:07:32.840Z,98026.00
2023-05-08T13:10:04.451Z,98024.72
2023-05-08T13:12:32.902Z,98012.63
2023-05-08T13:15:01.614Z,98013.00
2023-05-08T13:17:31.326Z,98015.50
2023-05-08T13:19:59.685Z,98011.13
2023-05-08T13:22:28.032Z,98006.06
2023-05-08T13:24:56.345Z,98006.91
2023-05-08T13:27:24.892Z,98001.25
2023-05-08T13:29:53.218Z,98000.19
2023-05-08T13:32:21.677Z,98007.53
2023-05-08T13:34:53.741Z,97995.84
2023-05-08T13:37:24.690Z,98003.75
2023-05-08T13:39:52.999Z,98004.13
2023-05-08T13:42:21.394Z,97990.69
2023-05-08T13:44:49.729Z,98005.69
2023-05-08T13:47:18.703Z,97990.25
2023-05-08T13:49:47.306Z,97988.97
2023-05-08T13:52:16.960Z,97993.09
2023-05-08T13:54:48.188Z,97986.63
2023-05-08T13:57:16.507Z,97986.03
2023-05-08T13:59:44.894Z,97990.63
2023-05-08T14:02:13.684Z,97982.13
2023-05-08T14:04:42.900Z,97984.81
2023-05-08T14:07:11.262Z,97987.03
2023-05-08T14:09:40.957Z,97980.41
2023-05-08T14:12:15.429Z,97981.69
2023-05-08T14:14:43.844Z,97976.47
2023-05-08T14:17:12.149Z,97983.41
2023-05-08T14:19:40.524Z,97984.72
2023-05-08T14:22:08.816Z,97984.28
2023-05-08T14:24:37.127Z,97980.75
2023-05-08T14:27:06.834Z,97987.69
2023-05-08T14:29:35.427Z,97980.63
2023-05-08T14:32:04.106Z,97981.53
2023-05-08T14:34:32.497Z,97984.28
2023-05-08T14:37:00.806Z,97989.56
2023-05-08T14:39:29.066Z,97984.59
2023-05-08T14:42:18.246Z,97977.59
2023-05-08T14:44:52.871Z,97984.06
2023-05-08T14:47:21.447Z,97987.88
2023-05-08T14:49:49.753Z,97984.81
2023-05-08T14:52:18.073Z,97983.78
2023-05-08T14:54:47.986Z,97982.16
2023-05-08T14:57:16.456Z,97980.94
2023-05-08T14:59:54.190Z,97982.41
2023-05-08T15:02:23.860Z,97979.31
2023-05-08T15:04:52.279Z,97977.91
2023-05-08T15:07:20.548Z,97975.63
2023-05-08T15:09:53.156Z,97975.03
2023-05-08T15:12:24.193Z,97978.78
2023-05-08T15:14:53.896Z,97974.69
2023-05-08T15:17:22.303Z,97973.31
2023-05-08T15:19:50.624Z,97972.31
2023-05-08T15:22:19.044Z,97975.66
2023-05-08T15:24:47.300Z,97970.69
2023-05-08T15:27:15.594Z,97976.53
2023-05-08T15:29:45.371Z,97974.31
2023-05-08T15:32:15.071Z,97977.91
2023-05-08T15:34:43.401Z,97986.66
2023-05-08T15:37:11.732Z,97979.78
2023-05-08T15:39:40.052Z,97986.22
2023-05-08T15:42:08.577Z,97983.97
2023-05-08T15:47:10.811Z,97981.72
2023-05-08T15:49:41.152Z,97984.88
2023-05-08T15:52:09.513Z,97979.88
2023-05-08T15:54:37.836Z,97984.31
2023-05-08T15:57:06.228Z,97975.13
2023-05-08T15:59:34.625Z,97976.00
2023-05-08T16:02:03.003Z,97978.94
2023-05-08T16:04:34.054Z,97985.59
2023-05-08T16:07:04.415Z,97981.88
2023-05-08T16:09:32.861Z,97978.13
2023-05-08T16:12:01.259Z,97983.16
2023-05-08T16:14:29.612Z,97973.59
2023-05-08T16:16:57.997Z,97974.03
2023-05-08T16:19:26.459Z,97973.66
2023-05-08T16:21:54.877Z,97971.59
2023-05-08T16:24:24.609Z,97965.78
2023-05-08T16:26:53.563Z,97970.56
2023-05-08T16:29:21.937Z,97965.78
2023-05-08T16:31:50.558Z,97966.63
2023-05-08T16:34:23.611Z,97971.59
2023-05-08T16:36:51.970Z,97962.47
2023-05-08T16:39:20.355Z,97966.66
2023-05-08T16:41:50.248Z,97966.88
2023-05-08T16:44:31.212Z,97964.38
2023-05-08T16:46:59.743Z,97963.38
2023-05-08T16:49:33.680Z,97968.16
2023-05-08T16:52:02.107Z,97970.22
2023-05-08T16:54:30.812Z,97963.19
2023-05-08T16:57:00.606Z,97966.31
2023-05-08T16:59:32.267Z,97962.97
2023-05-08T17:02:00.663Z,97975.88
2023-05-08T17:04:30.893Z,97980.03
2023-05-08T17:07:00.020Z,97985.25
2023-05-08T17:09:28.963Z,97984.84
2023-05-08T17:11:58.254Z,97987.97
2023-05-08T17:14:30.964Z,97985.91
2023-05-08T17:16:59.399Z,97986.31
2023-05-08T17:19:27.833Z,97992.34
2023-05-08T17:21:58.229Z,97993.19
2023-05-08T17:24:30.167Z,98000.00
2023-05-08T17:26:58.594Z,97996.28
2023-05-08T17:29:28.402Z,97993.59
2023-05-08T17:31:56.970Z,97996.72
2023-05-08T17:34:25.509Z,98003.34
2023-05-08T17:36:55.103Z,98003.78
2023-05-08T17:39:23.922Z,97997.13
2023-05-08T17:41:53.269Z,98008.53
2023-05-08T17:44:21.657Z,98011.84
2023-05-08T17:46:51.444Z,98015.19
2023-05-08T17:49:22.778Z,98017.03
2023-05-08T17:51:51.154Z,98028.22
2023-05-08T17:54:19.548Z,98026.78
2023-05-08T17:56:50.949Z,98022.84
2023-05-08T17:59:19.754Z,98026.16
2023-05-08T18:01:48.290Z,98026.78
2023-05-08T18:04:21.295Z,98030.25
2023-05-08T18:06:51.658Z,98036.25
2023-05-08T18:09:20.850Z,98041.63
2023-05-08T18:11:49.370Z,98054.69
2023-05-08T18:14:23.347Z,98050.09
2023-05-08T18:16:51.790Z,98053.41
2023-05-08T18:19:27.587Z,98050.69
2023-05-08T18:21:55.987Z,98049.63
2023-05-08T18:24:24.509Z,98059.53
2023-05-08T18:26:52.958Z,98055.78
2023-05-08T18:29:21.310Z,98056.56
2023-05-08T18:31:49.684Z,98062.97
2023-05-08T18:34:18.003Z,98069.13
2023-05-08T18:36:47.681Z,98063.72
2023-05-08T18:39:16.217Z,98065.13
2023-05-08T18:41:44.576Z,98067.59
2023-05-08T18:44:12.926Z,98066.50
2023-05-08T18:46:41.309Z,98070.81
2023-05-08T18:49:09.672Z,98073.25
2023-05-08T18:51:38.019Z,98073.22
2023-05-08T18:54:07.806Z,98077.16
2023-05-08T18:56:36.179Z,98076.72
2023-05-08T18:59:04.670Z,98078.34
2023-05-08T19:01:33.119Z,98077.22
2023-05-08T19:04:02.869Z,98074.50
2023-05-08T19:06:31.515Z,98085.84
2023-05-08T19:08:59.874Z,98089.31
2023-05-08T19:11:29.646Z,98090.25
2023-05-08T19:13:58.014Z,98089.97
2023-05-08T19:16:26.559Z,98089.75
2023-05-08T19:18:55.037Z,98087.00
2023-05-08T19:21:23.470Z,98089.41
2023-05-08T19:23:51.864Z,98091.00
2023-05-08T19:26:20.203Z,98097.16
2023-05-08T19:28:49.956Z,98087.16
2023-05-08T19:31:18.382Z,98094.97
2023-05-08T19:33:47.343Z,98092.03
2023-05-08T19:36:15.751Z,98084.53
2023-05-08T19:38:44.074Z,98084.91
2023-05-08T19:41:13.165Z,98089.00
2023-05-08T19:43:41.501Z,98086.91
2023-05-08T19:46:11.271Z,98090.97
2023-05-08T19:48:39.841Z,98089.00
2023-05-08T19:51:08.903Z,98087.72
2023-05-08T19:53:37.484Z,98089.13
2023-05-08T19:56:06.127Z,98085.31
2023-05-08T19:58:34.476Z,98092.75
2023-05-08T20:01:02.925Z,98091.25
2023-05-08T20:03:32.731Z,98087.28
2023-05-08T20:06:01.167Z,98093.19
2023-05-08T20:08:29.608Z,98089.25
2023-05-08T20:11:02.284Z,98102.00
2023-05-08T20:13:30.642Z,98093.69
2023-05-08T20:15:59.492Z,98101.47
2023-05-08T20:18:27.836Z,98099.34
2023-05-08T20:20:57.856Z,98099.03
2023-05-08T20:23:26.234Z,98104.78
2023-05-08T20:25:54.799Z,98100.81
2023-05-08T20:28:26.014Z,98089.41
2023-05-08T20:30:54.553Z,98096.38
2023-05-08T20:33:22.866Z,98093.88
2023-05-08T20:35:51.269Z,98093.41
2023-05-08T20:38:21.259Z,98079.69
2023-05-08T20:40:49.686Z,98090.78
2023-05-08T20:43:19.382Z,98091.81
2023-05-08T20:45:49.167Z,98095.66
2023-05-08T20:48:17.590Z,98095.22
2023-05-08T20:50:45.849Z,98093.72
2023-05-08T20:53:14.143Z,98092.25
2023-05-08T20:55:43.834Z,98106.19
2023-05-08T20:58:12.362Z,98092.13
2023-05-08T21:00:40.703Z,98096.84
2023-05-08T21:03:09.009Z,98089.97
2023-05-08T21:05:37.321Z,98086.00
2023-05-08T21:08:06.310Z,98088.22
2023-05-08T21:10:34.685Z,98088.56
2023-05-08T21:13:05.377Z,98086.28
2023-05-08T21:15:35.065Z,98089.50
2023-05-08T21:18:03.434Z,98089.88
2023-05-08T21:20:34.272Z,98085.84
2023-05-08T21:23:02.589Z,98081.88
2023-05-08T21:25:31.090Z,98081.41
2023-05-08T21:27:59.377Z,98085.47
2023-05-08T21:30:29.094Z,98085.81
2023-05-08T21:32:57.592Z,98079.16
2023-05-08T21:35:25.904Z,98084.88
2023-05-08T21:37:54.850Z,98079.88
2023-05-08T21:40:23.388Z,98075.03
2023-05-08T21:42:51.758Z,98075.56
2023-05-08T21:45:20.047Z,98075.91
2023-05-08T21:47:49.884Z,98074.97
2023-05-08T21:50:18.492Z,98068.28
2023-05-08T21:52:46.819Z,98074.16
2023-05-08T21:55:15.402Z,98067.50
2023-05-08T21:57:43.873Z,98061.19
2023-05-08T22:00:13.737Z,98064.06
2023-05-08T22:02:42.125Z,98062.72
2023-05-08T22:05:12.152Z,98067.78
2023-05-08T22:07:40.617Z,98064.25
2023-05-08T22:10:11.634Z,98069.13
2023-05-08T22:12:40.015Z,98067.81
2023-05-08T22:15:18.307Z,98064.50
2023-05-08T22:17:55.864Z,98065.66
2023-05-08T22:20:26.140Z,98068.69
2023-05-08T22:22:54.588Z,98074.22
2023-05-08T22:25:26.745Z,98074.56
2023-05-08T22:27:55.189Z,98072.06
2023-05-08T22:30:24.531Z,98068.25
2023-05-08T22:32:58.168Z,98077.31
2023-05-08T22:35:28.931Z,98074.81
2023-05-08T22:37:58.359Z,98068.09
2023-05-08T22:40:27.417Z,98074.81
2023-05-08T22:42:58.759Z,98067.13
2023-05-08T22:45:28.041Z,98068.31
2023-05-08T22:47:56.796Z,98059.78
2023-05-08T22:50:25.218Z,98055.97
2023-05-08T22:52:54.915Z,98058.13
2023-05-08T22:55:23.449Z,98053.97
2023-05-08T22:57:51.840Z,98057.16
2023-05-08T23:00:23.325Z,98053.34
2023-05-08T23:02:51.701Z,98047.50
2023-05-08T23:05:20.160Z,98045.34
2023-05-08T23:07:48.502Z,98044.66
2023-05-08T23:10:18.471Z,98051.38
2023-05-08T23:12:46.956Z,98041.03
2023-05-08T23:15:15.770Z,98044.03
2023-05-08T23:17:44.378Z,98044.38
2023-05-08T23:20:13.447Z,98042.03
2023-05-08T23:22:44.811Z,98031.69
2023-05-08T23:25:13.376Z,98037.38
2023-05-08T23:27:43.332Z,98038.75
2023-05-08T23:30:13.315Z,98025.88
2023-05-08T23:32:44.762Z,98023.56
2023-05-08T23:35:13.607Z,98018.22
2023-05-08T23:37:42.013Z,98001.50
2023-05-08T23:40:11.750Z,98001.66
2023-05-08T23:42:40.711Z,98000.84
2023-05-08T23:45:12.442Z,98015.38
2023-05-08T23:47:41.527Z,98016.22
2023-05-08T23:50:13.567Z,98014.56
2023-05-08T23:52:43.012Z,98000.69
2023-05-08T23:55:12.071Z,98010.53
2023-05-08T23:57:40.597Z,98014.22
